sensor_id;sensor_type;location;lat;lon;timestamp;P1;durP1;ratioP1;P2;durP2;ratioP2
18376;SDS011;9315;52.624;13.544;2023-04-01T00:01:08;16.10;;;8.07;;
18376;SDS011;9315;52.624;13.544;2023-04-01T00:03:43;19.37;;;8.50;;
18376;SDS011;9315;52.624;13.544;2023-04-01T00:06:15;21.33;;;8.80;;
18376;SDS011;9315;52.624;13.544;2023-04-01T00:08:44;14.43;;;8.77;;
18376;SDS011;9315;52.624;13.544;2023-04-01T00:11:12;14.03;;;7.77;;
18376;SDS011;9315;52.624;13.544;2023-04-01T00:13:41;17.07;;;8.10;;
18376;SDS011;9315;52.624;13.544;2023-04-01T00:16:08;16.10;;;7.77;;
18376;SDS011;9315;52.624;13.544;2023-04-01T00:18:47;19.67;;;7.93;;
18376;SDS011;9315;52.624;13.544;2023-04-01T00:21:17;12.23;;;6.90;;
18376;SDS011;9315;52.624;13.544;2023-04-01T00:23:45;16.57;;;7.53;;
18376;SDS011;9315;52.624;13.544;2023-04-01T00:26:12;17.40;;;8.03;;
18376;SDS011;9315;52.624;13.544;2023-04-01T00:28:40;17.73;;;7.87;;
18376;SDS011;9315;52.624;13.544;2023-04-01T00:31:08;20.40;;;8.50;;
18376;SDS011;9315;52.624;13.544;2023-04-01T00:33:36;19.73;;;8.87;;
18376;SDS011;9315;52.624;13.544;2023-04-01T00:36:07;14.53;;;7.07;;
18376;SDS011;9315;52.624;13.544;2023-04-01T00:38:43;19.40;;;8.30;;
18376;SDS011;9315;52.624;13.544;2023-04-01T00:41:12;21.87;;;9.20;;
18376;SDS011;9315;52.624;13.544;2023-04-01T00:43:42;23.77;;;9.60;;
18376;SDS011;9315;52.624;13.544;2023-04-01T00:46:14;21.43;;;10.43;;
18376;SDS011;9315;52.624;13.544;2023-04-01T00:48:42;17.87;;;9.03;;
18376;SDS011;9315;52.624;13.544;2023-04-01T00:51:22;23.70;;;10.30;;
18376;SDS011;9315;52.624;13.544;2023-04-01T00:53:55;14.00;;;7.47;;
18376;SDS011;9315;52.624;13.544;2023-04-01T00:56:30;26.70;;;9.90;;
18376;SDS011;9315;52.624;13.544;2023-04-01T00:59:08;22.47;;;9.33;;
18376;SDS011;9315;52.624;13.544;2023-04-01T01:01:42;21.23;;;9.80;;
18376;SDS011;9315;52.624;13.544;2023-04-01T01:10:17;21.80;;;9.90;;
18376;SDS011;9315;52.624;13.544;2023-04-01T01:16:25;22.90;;;11.10;;
18376;SDS011;9315;52.624;13.544;2023-04-01T01:19:07;27.07;;;10.47;;
18376;SDS011;9315;52.624;13.544;2023-04-01T01:25:36;23.03;;;9.90;;
18376;SDS011;9315;52.624;13.544;2023-04-01T01:28:37;23.63;;;10.83;;
18376;SDS011;9315;52.624;13.544;2023-04-01T01:37:16;26.80;;;11.67;;
18376;SDS011;9315;52.624;13.544;2023-04-01T01:39:54;33.27;;;13.40;;
18376;SDS011;9315;52.624;13.544;2023-04-01T01:42:27;29.13;;;12.73;;
18376;SDS011;9315;52.624;13.544;2023-04-01T01:44:57;20.87;;;11.37;;
18376;SDS011;9315;52.624;13.544;2023-04-01T01:47:26;21.70;;;11.90;;
18376;SDS011;9315;52.624;13.544;2023-04-01T01:49:55;24.43;;;11.67;;
18376;SDS011;9315;52.624;13.544;2023-04-01T01:52:24;16.80;;;9.33;;
18376;SDS011;9315;52.624;13.544;2023-04-01T01:54:55;31.90;;;11.77;;
18376;SDS011;9315;52.624;13.544;2023-04-01T01:57:34;28.47;;;12.27;;
18376;SDS011;9315;52.624;13.544;2023-04-01T02:00:08;25.07;;;11.37;;
18376;SDS011;9315;52.624;13.544;2023-04-01T02:02:41;21.90;;;11.37;;
18376;SDS011;9315;52.624;13.544;2023-04-01T02:05:21;25.17;;;11.67;;
18376;SDS011;9315;52.624;13.544;2023-04-01T02:07:55;23.30;;;11.30;;
18376;SDS011;9315;52.624;13.544;2023-04-01T02:10:58;29.37;;;12.00;;
18376;SDS011;9315;52.624;13.544;2023-04-01T02:13:35;26.23;;;11.17;;
18376;SDS011;9315;52.624;13.544;2023-04-01T02:16:49;23.40;;;11.20;;
18376;SDS011;9315;52.624;13.544;2023-04-01T02:19:36;21.17;;;9.83;;
18376;SDS011;9315;52.624;13.544;2023-04-01T02:22:13;28.03;;;11.50;;
18376;SDS011;9315;52.624;13.544;2023-04-01T02:24:50;22.50;;;10.77;;
18376;SDS011;9315;52.624;13.544;2023-04-01T02:27:24;23.17;;;11.10;;
18376;SDS011;9315;52.624;13.544;2023-04-01T02:29:52;24.40;;;11.30;;
18376;SDS011;9315;52.624;13.544;2023-04-01T02:32:19;24.63;;;10.63;;
18376;SDS011;9315;52.624;13.544;2023-04-01T02:34:47;23.63;;;11.43;;
18376;SDS011;9315;52.624;13.544;2023-04-01T02:37:15;24.23;;;11.67;;
18376;SDS011;9315;52.624;13.544;2023-04-01T02:39:43;33.50;;;12.73;;
18376;SDS011;9315;52.624;13.544;2023-04-01T02:42:10;25.13;;;11.70;;
18376;SDS011;9315;52.624;13.544;2023-04-01T02:44:37;22.47;;;11.27;;
18376;SDS011;9315;52.624;13.544;2023-04-01T02:47:04;38.77;;;14.20;;
18376;SDS011;9315;52.624;13.544;2023-04-01T02:49:32;23.50;;;11.33;;
18376;SDS011;9315;52.624;13.544;2023-04-01T02:51:59;36.20;;;14.23;;
18376;SDS011;9315;52.624;13.544;2023-04-01T02:54:26;18.87;;;9.40;;
18376;SDS011;9315;52.624;13.544;2023-04-01T02:56:53;22.07;;;10.37;;
18376;SDS011;9315;52.624;13.544;2023-04-01T02:59:20;30.30;;;11.87;;
18376;SDS011;9315;52.624;13.544;2023-04-01T03:01:47;30.50;;;12.03;;
18376;SDS011;9315;52.624;13.544;2023-04-01T03:04:17;30.23;;;12.20;;
18376;SDS011;9315;52.624;13.544;2023-04-01T03:06:44;27.23;;;11.50;;
18376;SDS011;9315;52.624;13.544;2023-04-01T03:09:11;23.80;;;10.50;;
18376;SDS011;9315;52.624;13.544;2023-04-01T03:11:39;20.60;;;10.13;;
18376;SDS011;9315;52.624;13.544;2023-04-01T03:14:06;24.87;;;11.90;;
18376;SDS011;9315;52.624;13.544;2023-04-01T03:16:34;17.83;;;9.40;;
18376;SDS011;9315;52.624;13.544;2023-04-01T03:19:01;22.70;;;10.13;;
18376;SDS011;9315;52.624;13.544;2023-04-01T03:21:28;19.77;;;10.10;;
18376;SDS011;9315;52.624;13.544;2023-04-01T03:23:56;24.03;;;10.80;;
18376;SDS011;9315;52.624;13.544;2023-04-01T03:26:23;21.70;;;10.37;;
18376;SDS011;9315;52.624;13.544;2023-04-01T03:28:52;20.43;;;9.10;;
18376;SDS011;9315;52.624;13.544;2023-04-01T03:31:21;21.40;;;9.97;;
18376;SDS011;9315;52.624;13.544;2023-04-01T03:33:49;23.13;;;9.57;;
18376;SDS011;9315;52.624;13.544;2023-04-01T03:36:16;23.47;;;9.33;;
18376;SDS011;9315;52.624;13.544;2023-04-01T03:38:44;22.23;;;10.33;;
18376;SDS011;9315;52.624;13.544;2023-04-01T03:41:15;25.70;;;10.00;;
18376;SDS011;9315;52.624;13.544;2023-04-01T03:43:43;23.40;;;9.40;;
18376;SDS011;9315;52.624;13.544;2023-04-01T03:46:11;20.67;;;8.50;;
18376;SDS011;9315;52.624;13.544;2023-04-01T03:48:44;24.60;;;10.23;;
18376;SDS011;9315;52.624;13.544;2023-04-01T03:51:12;27.20;;;10.50;;
18376;SDS011;9315;52.624;13.544;2023-04-01T03:53:39;30.73;;;10.73;;
18376;SDS011;9315;52.624;13.544;2023-04-01T03:56:06;23.77;;;10.53;;
18376;SDS011;9315;52.624;13.544;2023-04-01T03:58:35;20.30;;;8.07;;
18376;SDS011;9315;52.624;13.544;2023-04-01T04:01:02;26.67;;;10.00;;
18376;SDS011;9315;52.624;13.544;2023-04-01T04:03:38;21.93;;;9.40;;
18376;SDS011;9315;52.624;13.544;2023-04-01T04:06:07;27.63;;;10.13;;
18376;SDS011;9315;52.624;13.544;2023-04-01T04:08:39;27.60;;;11.17;;
18376;SDS011;9315;52.624;13.544;2023-04-01T04:11:06;29.17;;;11.40;;
18376;SDS011;9315;52.624;13.544;2023-04-01T04:13:34;37.57;;;13.23;;
18376;SDS011;9315;52.624;13.544;2023-04-01T04:16:02;44.17;;;14.90;;
18376;SDS011;9315;52.624;13.544;2023-04-01T04:18:30;42.47;;;14.53;;
18376;SDS011;9315;52.624;13.544;2023-04-01T04:20:57;45.10;;;14.87;;
18376;SDS011;9315;52.624;13.544;2023-04-01T04:23:24;40.43;;;14.07;;
18376;SDS011;9315;52.624;13.544;2023-04-01T04:25:58;45.60;;;15.30;;
18376;SDS011;9315;52.624;13.544;2023-04-01T04:28:33;33.10;;;12.30;;
18376;SDS011;9315;52.624;13.544;2023-04-01T04:31:00;27.10;;;11.53;;
18376;SDS011;9315;52.624;13.544;2023-04-01T04:33:31;46.23;;;14.67;;
18376;SDS011;9315;52.624;13.544;2023-04-01T04:35:59;47.57;;;15.37;;
18376;SDS011;9315;52.624;13.544;2023-04-01T04:38:28;41.37;;;14.73;;
18376;SDS011;9315;52.624;13.544;2023-04-01T04:40:55;24.70;;;10.90;;
18376;SDS011;9315;52.624;13.544;2023-04-01T04:43:22;36.30;;;12.93;;
18376;SDS011;9315;52.624;13.544;2023-04-01T04:45:50;35.40;;;11.43;;
18376;SDS011;9315;52.624;13.544;2023-04-01T04:48:17;31.83;;;10.77;;
18376;SDS011;9315;52.624;13.544;2023-04-01T04:50:47;25.70;;;10.27;;
18376;SDS011;9315;52.624;13.544;2023-04-01T04:53:16;30.37;;;11.50;;
18376;SDS011;9315;52.624;13.544;2023-04-01T04:55:45;31.73;;;10.97;;
18376;SDS011;9315;52.624;13.544;2023-04-01T04:58:16;32.87;;;11.03;;
18376;SDS011;9315;52.624;13.544;2023-04-01T05:00:44;23.00;;;9.20;;
18376;SDS011;9315;52.624;13.544;2023-04-01T05:03:12;23.80;;;9.00;;
18376;SDS011;9315;52.624;13.544;2023-04-01T05:05:47;31.93;;;11.97;;
18376;SDS011;9315;52.624;13.544;2023-04-01T05:08:18;35.47;;;11.67;;
18376;SDS011;9315;52.624;13.544;2023-04-01T05:10:45;35.30;;;12.00;;
18376;SDS011;9315;52.624;13.544;2023-04-01T05:13:13;33.73;;;12.10;;
18376;SDS011;9315;52.624;13.544;2023-04-01T05:15:40;36.57;;;12.23;;
18376;SDS011;9315;52.624;13.544;2023-04-01T05:18:07;43.63;;;13.40;;
18376;SDS011;9315;52.624;13.544;2023-04-01T05:20:34;34.97;;;11.57;;
18376;SDS011;9315;52.624;13.544;2023-04-01T05:23:02;50.80;;;14.03;;
18376;SDS011;9315;52.624;13.544;2023-04-01T05:25:29;23.43;;;10.27;;
18376;SDS011;9315;52.624;13.544;2023-04-01T05:27:57;23.87;;;10.17;;
18376;SDS011;9315;52.624;13.544;2023-04-01T05:30:27;21.23;;;9.37;;
18376;SDS011;9315;52.624;13.544;2023-04-01T05:32:54;34.57;;;11.53;;
18376;SDS011;9315;52.624;13.544;2023-04-01T05:35:21;28.03;;;10.03;;
18376;SDS011;9315;52.624;13.544;2023-04-01T05:37:49;43.40;;;14.10;;
18376;SDS011;9315;52.624;13.544;2023-04-01T05:40:18;25.23;;;9.77;;
18376;SDS011;9315;52.624;13.544;2023-04-01T05:42:46;40.73;;;13.27;;
18376;SDS011;9315;52.624;13.544;2023-04-01T05:45:13;38.57;;;12.87;;
18376;SDS011;9315;52.624;13.544;2023-04-01T05:47:42;39.80;;;12.97;;
18376;SDS011;9315;52.624;13.544;2023-04-01T05:50:09;28.30;;;10.70;;
18376;SDS011;9315;52.624;13.544;2023-04-01T05:52:37;17.03;;;7.83;;
18376;SDS011;9315;52.624;13.544;2023-04-01T05:55:05;19.07;;;9.10;;
18376;SDS011;9315;52.624;13.544;2023-04-01T05:57:33;20.80;;;10.17;;
18376;SDS011;9315;52.624;13.544;2023-04-01T06:00:00;36.00;;;12.73;;
18376;SDS011;9315;52.624;13.544;2023-04-01T06:02:31;38.40;;;12.90;;
18376;SDS011;9315;52.624;13.544;2023-04-01T06:05:44;43.93;;;13.57;;
18376;SDS011;9315;52.624;13.544;2023-04-01T06:07:53;41.37;;;13.73;;
18376;SDS011;9315;52.624;13.544;2023-04-01T06:11:01;40.27;;;14.30;;
18376;SDS011;9315;52.624;13.544;2023-04-01T06:14:00;47.70;;;14.27;;
18376;SDS011;9315;52.624;13.544;2023-04-01T06:29:05;34.37;;;13.03;;
18376;SDS011;9315;52.624;13.544;2023-04-01T06:54:31;33.20;;;12.17;;
18376;SDS011;9315;52.624;13.544;2023-04-01T06:57:32;16.53;;;8.03;;
18376;SDS011;9315;52.624;13.544;2023-04-01T07:00:27;19.57;;;9.23;;
18376;SDS011;9315;52.624;13.544;2023-04-01T07:03:20;15.37;;;7.37;;
18376;SDS011;9315;52.624;13.544;2023-04-01T07:06:03;13.80;;;8.50;;
18376;SDS011;9315;52.624;13.544;2023-04-01T07:08:38;16.40;;;8.27;;
18376;SDS011;9315;52.624;13.544;2023-04-01T07:11:10;16.53;;;8.07;;
18376;SDS011;9315;52.624;13.544;2023-04-01T07:14:08;14.40;;;7.87;;
18376;SDS011;9315;52.624;13.544;2023-04-01T07:16:54;17.20;;;8.33;;
18376;SDS011;9315;52.624;13.544;2023-04-01T07:19:46;17.37;;;8.13;;
18376;SDS011;9315;52.624;13.544;2023-04-01T07:22:34;16.83;;;8.53;;
18376;SDS011;9315;52.624;13.544;2023-04-01T07:25:18;14.03;;;8.33;;
18376;SDS011;9315;52.624;13.544;2023-04-01T07:28:04;18.77;;;8.00;;
18376;SDS011;9315;52.624;13.544;2023-04-01T07:34:14;15.30;;;7.37;;
18376;SDS011;9315;52.624;13.544;2023-04-01T07:37:18;18.20;;;7.80;;
18376;SDS011;9315;52.624;13.544;2023-04-01T07:49:55;18.57;;;8.23;;
18376;SDS011;9315;52.624;13.544;2023-04-01T07:55:23;21.33;;;8.47;;
18376;SDS011;9315;52.624;13.544;2023-04-01T08:01:15;19.20;;;9.80;;
18376;SDS011;9315;52.624;13.544;2023-04-01T08:04:25;22.73;;;9.63;;
18376;SDS011;9315;52.624;13.544;2023-04-01T08:07:17;25.97;;;9.73;;
18376;SDS011;9315;52.624;13.544;2023-04-01T08:10:00;17.97;;;10.37;;
18376;SDS011;9315;52.624;13.544;2023-04-01T08:22:25;15.33;;;10.20;;
18376;SDS011;9315;52.624;13.544;2023-04-01T08:25:24;15.87;;;10.37;;
18376;SDS011;9315;52.624;13.544;2023-04-01T08:31:18;16.73;;;11.07;;
18376;SDS011;9315;52.624;13.544;2023-04-01T08:34:28;17.40;;;11.00;;
18376;SDS011;9315;52.624;13.544;2023-04-01T08:37:36;15.57;;;10.23;;
18376;SDS011;9315;52.624;13.544;2023-04-01T08:59:14;13.00;;;8.87;;
18376;SDS011;9315;52.624;13.544;2023-04-01T09:02:05;13.40;;;8.90;;
18376;SDS011;9315;52.624;13.544;2023-04-01T09:11:16;11.10;;;8.70;;
18376;SDS011;9315;52.624;13.544;2023-04-01T09:14:06;10.60;;;8.90;;
18376;SDS011;9315;52.624;13.544;2023-04-01T09:20:30;12.00;;;9.00;;
18376;SDS011;9315;52.624;13.544;2023-04-01T09:45:32;13.43;;;11.60;;
18376;SDS011;9315;52.624;13.544;2023-04-01T09:48:25;14.57;;;11.97;;
18376;SDS011;9315;52.624;13.544;2023-04-01T09:54:13;15.77;;;11.80;;
18376;SDS011;9315;52.624;13.544;2023-04-01T09:57:18;15.60;;;12.33;;
18376;SDS011;9315;52.624;13.544;2023-04-01T10:09:05;13.37;;;11.80;;
18376;SDS011;9315;52.624;13.544;2023-04-01T10:12:29;11.37;;;10.03;;
18376;SDS011;9315;52.624;13.544;2023-04-01T10:24:18;11.97;;;10.13;;
18376;SDS011;9315;52.624;13.544;2023-04-01T10:43:45;13.37;;;8.80;;
18376;SDS011;9315;52.624;13.544;2023-04-01T10:53:37;10.63;;;8.80;;
18376;SDS011;9315;52.624;13.544;2023-04-01T11:00:08;10.80;;;8.63;;
18376;SDS011;9315;52.624;13.544;2023-04-01T11:32:16;9.50;;;8.50;;
18376;SDS011;9315;52.624;13.544;2023-04-01T11:38:49;9.67;;;8.30;;
18376;SDS011;9315;52.624;13.544;2023-04-01T12:08:04;10.23;;;8.83;;
18376;SDS011;9315;52.624;13.544;2023-04-01T12:19:51;11.30;;;10.07;;
18376;SDS011;9315;52.624;13.544;2023-04-01T12:22:41;13.67;;;11.50;;
18376;SDS011;9315;52.624;13.544;2023-04-01T12:26:05;13.20;;;11.80;;
18376;SDS011;9315;52.624;13.544;2023-04-01T12:48:05;12.60;;;9.90;;
18376;SDS011;9315;52.624;13.544;2023-04-01T12:51:11;14.87;;;11.13;;
18376;SDS011;9315;52.624;13.544;2023-04-01T13:06:24;12.50;;;9.57;;
18376;SDS011;9315;52.624;13.544;2023-04-01T13:12:23;16.37;;;10.03;;
18376;SDS011;9315;52.624;13.544;2023-04-01T13:26:53;7.93;;;7.00;;
18376;SDS011;9315;52.624;13.544;2023-04-01T13:29:39;8.03;;;6.83;;
18376;SDS011;9315;52.624;13.544;2023-04-01T13:33:04;7.13;;;6.10;;
18376;SDS011;9315;52.624;13.544;2023-04-01T13:39:58;7.20;;;6.43;;
18376;SDS011;9315;52.624;13.544;2023-04-01T13:43:38;6.30;;;5.63;;
18376;SDS011;9315;52.624;13.544;2023-04-01T13:55:30;6.03;;;4.50;;
18376;SDS011;9315;52.624;13.544;2023-04-01T14:02:13;4.73;;;3.50;;
18376;SDS011;9315;52.624;13.544;2023-04-01T14:09:11;5.80;;;3.50;;
18376;SDS011;9315;52.624;13.544;2023-04-01T14:18:16;6.03;;;4.37;;
18376;SDS011;9315;52.624;13.544;2023-04-01T14:24:28;5.83;;;4.23;;
18376;SDS011;9315;52.624;13.544;2023-04-01T14:50:11;4.00;;;3.50;;
18376;SDS011;9315;52.624;13.544;2023-04-01T14:58:14;5.50;;;4.40;;
18376;SDS011;9315;52.624;13.544;2023-04-01T15:03:40;7.33;;;4.70;;
18376;SDS011;9315;52.624;13.544;2023-04-01T15:16:25;7.97;;;5.13;;
18376;SDS011;9315;52.624;13.544;2023-04-01T15:40:29;6.43;;;3.87;;
18376;SDS011;9315;52.624;13.544;2023-04-01T15:43:18;6.03;;;4.07;;
18376;SDS011;9315;52.624;13.544;2023-04-01T15:52:22;4.80;;;3.40;;
18376;SDS011;9315;52.624;13.544;2023-04-01T16:08:40;9.40;;;6.33;;
18376;SDS011;9315;52.624;13.544;2023-04-01T16:17:23;5.40;;;3.60;;
18376;SDS011;9315;52.624;13.544;2023-04-01T16:20:20;5.63;;;4.00;;
18376;SDS011;9315;52.624;13.544;2023-04-01T16:26:13;6.43;;;4.17;;
18376;SDS011;9315;52.624;13.544;2023-04-01T16:35:29;11.63;;;5.97;;
18376;SDS011;9315;52.624;13.544;2023-04-01T16:44:17;4.70;;;2.87;;
18376;SDS011;9315;52.624;13.544;2023-04-01T16:46:57;7.83;;;6.10;;
18376;SDS011;9315;52.624;13.544;2023-04-01T16:58:35;4.57;;;3.93;;
18376;SDS011;9315;52.624;13.544;2023-04-01T17:01:26;6.33;;;4.80;;
18376;SDS011;9315;52.624;13.544;2023-04-01T17:13:24;4.33;;;3.77;;
18376;SDS011;9315;52.624;13.544;2023-04-01T17:16:25;9.60;;;3.73;;
18376;SDS011;9315;52.624;13.544;2023-04-01T17:40:12;6.40;;;3.70;;
18376;SDS011;9315;52.624;13.544;2023-04-01T17:43:47;6.70;;;3.63;;
18376;SDS011;9315;52.624;13.544;2023-04-01T17:52:24;8.43;;;3.03;;
18376;SDS011;9315;52.624;13.544;2023-04-01T17:55:43;6.50;;;3.27;;
18376;SDS011;9315;52.624;13.544;2023-04-01T17:58:44;5.53;;;4.03;;
18376;SDS011;9315;52.624;13.544;2023-04-01T18:01:43;5.73;;;3.60;;
18376;SDS011;9315;52.624;13.544;2023-04-01T18:04:47;8.27;;;5.20;;
18376;SDS011;9315;52.624;13.544;2023-04-01T18:20:32;7.03;;;4.20;;
18376;SDS011;9315;52.624;13.544;2023-04-01T18:23:23;8.53;;;5.03;;
18376;SDS011;9315;52.624;13.544;2023-04-01T18:26:31;7.37;;;4.43;;
18376;SDS011;9315;52.624;13.544;2023-04-01T18:31:44;8.47;;;5.53;;
18376;SDS011;9315;52.624;13.544;2023-04-01T18:34:41;6.63;;;4.43;;
18376;SDS011;9315;52.624;13.544;2023-04-01T18:37:58;10.13;;;5.00;;
18376;SDS011;9315;52.624;13.544;2023-04-01T18:41:18;10.53;;;5.17;;
18376;SDS011;9315;52.624;13.544;2023-04-01T18:47:32;10.67;;;5.73;;
18376;SDS011;9315;52.624;13.544;2023-04-01T18:50:51;10.40;;;5.90;;
18376;SDS011;9315;52.624;13.544;2023-04-01T18:53:35;10.17;;;5.23;;
18376;SDS011;9315;52.624;13.544;2023-04-01T18:56:24;14.37;;;6.00;;
18376;SDS011;9315;52.624;13.544;2023-04-01T18:59:05;10.47;;;5.17;;
18376;SDS011;9315;52.624;13.544;2023-04-01T19:02:13;14.23;;;6.20;;
18376;SDS011;9315;52.624;13.544;2023-04-01T19:07:44;10.60;;;6.10;;
18376;SDS011;9315;52.624;13.544;2023-04-01T19:10:31;11.73;;;7.00;;
18376;SDS011;9315;52.624;13.544;2023-04-01T19:13:23;10.17;;;5.87;;
18376;SDS011;9315;52.624;13.544;2023-04-01T19:19:47;17.33;;;6.73;;
18376;SDS011;9315;52.624;13.544;2023-04-01T19:28:27;12.63;;;6.83;;
18376;SDS011;9315;52.624;13.544;2023-04-01T19:35:03;12.83;;;5.57;;
18376;SDS011;9315;52.624;13.544;2023-04-01T19:50:37;13.13;;;7.67;;
18376;SDS011;9315;52.624;13.544;2023-04-01T20:12:46;16.67;;;7.40;;
18376;SDS011;9315;52.624;13.544;2023-04-01T20:15:59;10.77;;;5.90;;
18376;SDS011;9315;52.624;13.544;2023-04-01T20:21:41;13.10;;;6.30;;
18376;SDS011;9315;52.624;13.544;2023-04-01T20:26:42;12.90;;;6.43;;
18376;SDS011;9315;52.624;13.544;2023-04-01T20:39:02;14.33;;;7.60;;
18376;SDS011;9315;52.624;13.544;2023-04-01T20:42:51;15.03;;;6.13;;
18376;SDS011;9315;52.624;13.544;2023-04-01T20:46:30;11.40;;;7.20;;
18376;SDS011;9315;52.624;13.544;2023-04-01T20:53:09;14.10;;;7.30;;
18376;SDS011;9315;52.624;13.544;2023-04-01T20:58:20;12.57;;;6.90;;
18376;SDS011;9315;52.624;13.544;2023-04-01T21:01:35;13.37;;;6.30;;
18376;SDS011;9315;52.624;13.544;2023-04-01T21:07:46;12.50;;;6.60;;
18376;SDS011;9315;52.624;13.544;2023-04-01T21:11:01;14.37;;;6.70;;
18376;SDS011;9315;52.624;13.544;2023-04-01T21:17:50;8.20;;;4.83;;
18376;SDS011;9315;52.624;13.544;2023-04-01T21:23:39;12.23;;;5.60;;
18376;SDS011;9315;52.624;13.544;2023-04-01T21:32:43;9.83;;;5.23;;
18376;SDS011;9315;52.624;13.544;2023-04-01T21:36:31;9.27;;;5.57;;
18376;SDS011;9315;52.624;13.544;2023-04-01T21:45:33;8.77;;;4.90;;
18376;SDS011;9315;52.624;13.544;2023-04-01T21:55:50;10.57;;;5.20;;
18376;SDS011;9315;52.624;13.544;2023-04-01T21:59:32;7.17;;;3.60;;
18376;SDS011;9315;52.624;13.544;2023-04-01T22:05:22;5.43;;;3.60;;
18376;SDS011;9315;52.624;13.544;2023-04-01T22:08:18;9.13;;;3.67;;
18376;SDS011;9315;52.624;13.544;2023-04-01T22:11:10;5.13;;;2.90;;
18376;SDS011;9315;52.624;13.544;2023-04-01T22:14:05;6.87;;;3.83;;
18376;SDS011;9315;52.624;13.544;2023-04-01T22:20:04;4.97;;;3.07;;
18376;SDS011;9315;52.624;13.544;2023-04-01T22:32:21;4.80;;;2.83;;
18376;SDS011;9315;52.624;13.544;2023-04-01T22:42:11;3.27;;;2.67;;
18376;SDS011;9315;52.624;13.544;2023-04-01T22:56:40;5.73;;;3.50;;
18376;SDS011;9315;52.624;13.544;2023-04-01T22:59:31;4.90;;;3.13;;
18376;SDS011;9315;52.624;13.544;2023-04-01T23:02:13;4.80;;;2.77;;
18376;SDS011;9315;52.624;13.544;2023-04-01T23:05:00;4.70;;;3.00;;
18376;SDS011;9315;52.624;13.544;2023-04-01T23:07:45;3.57;;;2.63;;
18376;SDS011;9315;52.624;13.544;2023-04-01T23:10:42;6.77;;;2.83;;
18376;SDS011;9315;52.624;13.544;2023-04-01T23:13:45;5.80;;;2.80;;
18376;SDS011;9315;52.624;13.544;2023-04-01T23:16:24;6.10;;;3.10;;
18376;SDS011;9315;52.624;13.544;2023-04-01T23:19:09;6.90;;;3.33;;
18376;SDS011;9315;52.624;13.544;2023-04-01T23:22:00;6.43;;;3.67;;
18376;SDS011;9315;52.624;13.544;2023-04-01T23:25:27;6.47;;;3.73;;
18376;SDS011;9315;52.624;13.544;2023-04-01T23:28:24;10.30;;;3.60;;
18376;SDS011;9315;52.624;13.544;2023-04-01T23:31:31;6.97;;;3.53;;
18376;SDS011;9315;52.624;13.544;2023-04-01T23:36:40;6.93;;;3.67;;
18376;SDS011;9315;52.624;13.544;2023-04-01T23:39:33;7.80;;;3.23;;
18376;SDS011;9315;52.624;13.544;2023-04-01T23:42:14;10.53;;;2.57;;
18376;SDS011;9315;52.624;13.544;2023-04-01T23:45:04;5.23;;;2.77;;
18376;SDS011;9315;52.624;13.544;2023-04-01T23:47:46;5.10;;;2.90;;
18376;SDS011;9315;52.624;13.544;2023-04-01T23:50:17;8.13;;;3.10;;
18376;SDS011;9315;52.624;13.544;2023-04-01T23:53:09;5.50;;;2.97;;
18376;SDS011;9315;52.624;13.544;2023-04-01T23:55:51;5.73;;;2.93;;
